This is the latest recevied weather packets stored in our database for station/object R1ZCU-14. If no packets are shown the sender has not sent any weather packets the latest 10 day(s).
| Time | Temp. | Humidity | Pressure | Rain* | Wind** | Luminosity | Snow |
|---|---|---|---|---|---|---|---|
| 1778156060 | 8.33° C | 37% | 1009 hPa | - | - | - | - |
| 1778155534 | 8.89° C | 37% | 1008.9 hPa | - | - | - | - |
| 1778155459 | 8.89° C | 37% | 1008.9 hPa | - | - | - | - |
| 1778154122 | 8.89° C | 36% | 1008.9 hPa | - | - | - | - |
| 1778153521 | 9.44° C | 35% | 1008.8 hPa | - | - | - | - |
| 1778152921 | 8.89° C | 36% | 1008.8 hPa | - | - | - | - |
| 1778152320 | 8.89° C | 36% | 1008.7 hPa | - | - | - | - |
| 1778151720 | 8.89° C | 36% | 1008.7 hPa | - | - | - | - |
| 1778151119 | 8.33° C | 38% | 1008.6 hPa | - | - | - | - |
| 1778150519 | 8.33° C | 37% | 1008.7 hPa | - | - | - | - |
| 1778149918 | 8.89° C | 37% | 1008.6 hPa | - | - | - | - |
| 1778149318 | 8.33° C | 38% | 1008.4 hPa | - | - | - | - |
| 1778148717 | 8.33° C | 37% | 1008.4 hPa | - | - | - | - |
| 1778148117 | 8.89° C | 36% | 1008.3 hPa | - | - | - | - |
| 1778147516 | 9.44° C | 35% | 1008.3 hPa | - | - | - | - |
| 1778146916 | 10° C | 33% | 1008.2 hPa | - | - | - | - |
| 1778146315 | 14.44° C | 24% | 1007.7 hPa | - | - | - | - |
| 1778145715 | 19.44° C | 18% | 1007.2 hPa | - | - | - | - |
| 1778145114 | 20° C | 17% | 1007.1 hPa | - | - | - | - |
| 1778144514 | 21.11° C | 16% | 1007 hPa | - | - | - | - |
| 1778143914 | 19.44° C | 18% | 1006.9 hPa | - | - | - | - |
| 1778143313 | 18.33° C | 18% | 1007.3 hPa | - | - | - | - |
| 1778142712 | 16.11° C | 20% | 1007.2 hPa | - | - | - | - |
| 1778142112 | 15° C | 22% | 1007.5 hPa | - | - | - | - |
| 1778141511 | 14.44° C | 23% | 1007.7 hPa | - | - | - | - |
* Rain since midnight (hover to see other rain measurements)
** Current wind speed in m/s (hover to see current wind gust speed)